createdAt,value
2018-07-08T00:00:07.021Z,100194.80
2018-07-08T00:02:32.980Z,100191.03
2018-07-08T00:04:58.965Z,100200.49
2018-07-08T00:07:24.944Z,100198.02
2018-07-08T00:09:50.910Z,100195.89
2018-07-08T00:12:16.862Z,100198.27
2018-07-08T00:14:42.824Z,100197.35
2018-07-08T00:17:08.811Z,100193.72
2018-07-08T00:19:34.772Z,100192.41
2018-07-08T00:22:00.739Z,100195.84
2018-07-08T00:24:26.699Z,100195.66
2018-07-08T00:26:52.652Z,100193.23
2018-07-08T00:29:18.620Z,100195.05
2018-07-08T00:31:44.608Z,100188.25
2018-07-08T00:34:10.572Z,100192.73
2018-07-08T00:36:36.519Z,100199.64
2018-07-08T00:39:02.482Z,100199.40
2018-07-08T00:41:28.460Z,100199.13
2018-07-08T00:43:54.420Z,100198.12
2018-07-08T00:46:20.405Z,100203.85
2018-07-08T00:48:46.392Z,100201.59
2018-07-08T00:51:12.359Z,100197.56
2018-07-08T00:53:38.347Z,100199.61
2018-07-08T00:56:04.331Z,100201.02
2018-07-08T00:58:30.292Z,100203.34
2018-07-08T01:00:56.270Z,100198.94
2018-07-08T01:03:22.216Z,100202.06
2018-07-08T01:05:48.175Z,100198.45
2018-07-08T01:08:14.120Z,100203.16
2018-07-08T01:10:40.095Z,100200.14
2018-07-08T01:13:06.080Z,100198.75
2018-07-08T01:15:32.020Z,100198.03
2018-07-08T01:17:57.973Z,100204.98
2018-07-08T01:20:23.953Z,100203.80
2018-07-08T01:22:49.989Z,100202.81
2018-07-08T01:25:15.942Z,100197.90
2018-07-08T01:27:41.888Z,100198.16
2018-07-08T01:30:07.853Z,100199.81
2018-07-08T01:32:33.813Z,100201.95
2018-07-08T01:34:59.782Z,100205.80
2018-07-08T01:37:25.736Z,100206.08
2018-07-08T01:39:51.688Z,100212.07
2018-07-08T01:42:17.636Z,100212.49
2018-07-08T01:44:43.580Z,100209.09
2018-07-08T01:47:09.587Z,100208.52
2018-07-08T01:49:35.541Z,100211.73
2018-07-08T01:52:01.505Z,100218.13
2018-07-08T01:54:27.464Z,100211.22
2018-07-08T01:56:53.466Z,100219.11
2018-07-08T01:59:19.409Z,100215.28
2018-07-08T02:01:45.370Z,100219.23
2018-07-08T02:04:11.344Z,100221.22
2018-07-08T02:06:37.280Z,100213.11
2018-07-08T02:09:03.211Z,100220.86
2018-07-08T02:11:29.165Z,100220.45
2018-07-08T02:13:55.131Z,100224.80
2018-07-08T02:16:21.083Z,100224.20
2018-07-08T02:18:47.036Z,100228.67
2018-07-08T02:21:12.994Z,100225.98
2018-07-08T02:23:38.966Z,100225.64
2018-07-08T02:26:04.900Z,100227.08
2018-07-08T02:28:30.881Z,100230.88
2018-07-08T02:30:56.867Z,100226.64
2018-07-08T02:33:22.859Z,100230.42
2018-07-08T02:35:48.815Z,100223.63
2018-07-08T02:38:14.770Z,100222.58
2018-07-08T02:40:40.740Z,100224.28
2018-07-08T02:43:06.679Z,100230.28
2018-07-08T02:45:32.648Z,100235.88
2018-07-08T02:47:58.581Z,100233.61
2018-07-08T02:50:24.527Z,100238.23
2018-07-08T02:52:50.477Z,100235.29
2018-07-08T02:55:16.457Z,100228.70
2018-07-08T02:57:42.426Z,100232.97
2018-07-08T03:00:08.366Z,100242.49
2018-07-08T03:02:34.331Z,100236.91
2018-07-08T03:05:00.283Z,100243.87
2018-07-08T03:07:26.228Z,100240.61
2018-07-08T03:09:52.154Z,100239.52
2018-07-08T03:12:18.120Z,100239.25
2018-07-08T03:14:44.063Z,100238.55
2018-07-08T03:17:10.026Z,100237.14
2018-07-08T03:19:35.966Z,100240.28
2018-07-08T03:22:01.943Z,100236.63
2018-07-08T03:24:27.892Z,100243.30
2018-07-08T03:26:53.864Z,100235.12
2018-07-08T03:29:19.834Z,100244.48
2018-07-08T03:31:45.790Z,100242.64
2018-07-08T03:34:11.775Z,100233.14
2018-07-08T03:36:37.745Z,100236.75
2018-07-08T03:39:03.750Z,100245.62
2018-07-08T03:41:29.700Z,100246.41
2018-07-08T03:43:55.661Z,100246.98
2018-07-08T03:46:21.612Z,100250.05
2018-07-08T03:48:47.596Z,100259.89
2018-07-08T03:51:13.565Z,100257.61
2018-07-08T03:53:39.526Z,100267.98
2018-07-08T03:56:05.499Z,100270.34
2018-07-08T03:58:31.449Z,100261.43
2018-07-08T04:00:57.377Z,100264.27
2018-07-08T04:03:23.330Z,100265.03
2018-07-08T04:05:49.288Z,100265.94
2018-07-08T04:08:15.269Z,100268.88
2018-07-08T04:10:41.226Z,100275.27
2018-07-08T04:13:07.197Z,100275.61
2018-07-08T04:15:33.150Z,100278.20
2018-07-08T04:17:59.116Z,100280.83
2018-07-08T04:20:25.086Z,100277.70
2018-07-08T04:22:52.055Z,100279.95
2018-07-08T04:25:18.006Z,100281.35
2018-07-08T04:27:43.950Z,100279.75
2018-07-08T04:30:09.893Z,100286.20
2018-07-08T04:32:35.846Z,100289.77
2018-07-08T04:35:01.843Z,100286.17
2018-07-08T04:37:27.808Z,100291.58
2018-07-08T04:39:53.769Z,100291.05
2018-07-08T04:42:19.729Z,100287.24
2018-07-08T04:44:45.692Z,100289.89
2018-07-08T04:47:11.676Z,100299.59
2018-07-08T04:49:37.660Z,100304.83
2018-07-08T04:52:03.609Z,100305.84
2018-07-08T04:54:29.563Z,100306.22
2018-07-08T04:56:55.531Z,100299.99
2018-07-08T04:59:21.493Z,100297.13
2018-07-08T05:01:47.440Z,100303.95
2018-07-08T05:04:13.425Z,100299.78
2018-07-08T05:06:39.474Z,100298.05
2018-07-08T05:09:05.413Z,100298.70
2018-07-08T05:11:31.397Z,100303.61
2018-07-08T05:13:57.377Z,100306.55
2018-07-08T05:16:23.317Z,100308.50
2018-07-08T05:18:49.272Z,100303.84
2018-07-08T05:21:15.234Z,100312.30
2018-07-08T05:23:41.190Z,100313.52
2018-07-08T05:26:07.146Z,100317.10
2018-07-08T05:28:33.093Z,100313.80
2018-07-08T05:30:59.092Z,100318.82
2018-07-08T05:33:25.060Z,100318.36
2018-07-08T05:35:51.014Z,100321.73
2018-07-08T05:38:16.959Z,100321.41
2018-07-08T05:40:42.910Z,100326.76
2018-07-08T05:43:08.970Z,100326.59
2018-07-08T05:45:35.047Z,100324.22
2018-07-08T05:48:01.103Z,100329.34
2018-07-08T05:50:27.117Z,100320.25
2018-07-08T05:52:53.058Z,100319.40
2018-07-08T05:55:19.016Z,100319.95
2018-07-08T05:57:45.983Z,100323.67
2018-07-08T06:00:11.941Z,100323.22
2018-07-08T06:02:37.896Z,100325.21
2018-07-08T06:05:03.868Z,100326.49
2018-07-08T06:07:29.814Z,100311.80
2018-07-08T06:09:55.741Z,100320.09
2018-07-08T06:12:21.703Z,100322.63
2018-07-08T06:14:47.665Z,100325.30
2018-07-08T06:17:13.623Z,100335.67
2018-07-08T06:19:39.572Z,100328.09
2018-07-08T06:22:05.540Z,100328.11
2018-07-08T06:24:31.522Z,100321.51
2018-07-08T06:26:57.458Z,100324.48
2018-07-08T06:29:23.415Z,100325.19
2018-07-08T06:31:49.436Z,100325.99
2018-07-08T06:34:15.370Z,100330.17
2018-07-08T06:36:41.317Z,100323.03
2018-07-08T06:39:07.311Z,100323.85
2018-07-08T06:41:33.236Z,100318.19
2018-07-08T06:43:59.180Z,100310.89
2018-07-08T06:46:25.121Z,100310.28
2018-07-08T06:48:51.086Z,100317.75
2018-07-08T06:51:17.053Z,100325.91
2018-07-08T06:53:43.010Z,100323.81
2018-07-08T06:56:09.064Z,100325.44
2018-07-08T06:58:35.021Z,100327.73
2018-07-08T07:01:01.014Z,100327.06
2018-07-08T07:03:26.983Z,100324.73
2018-07-08T07:05:52.951Z,100316.87
2018-07-08T07:08:18.909Z,100318.56
2018-07-08T07:10:44.898Z,100316.89
2018-07-08T07:13:10.918Z,100322.52
2018-07-08T07:15:36.908Z,100314.14
2018-07-08T07:18:02.926Z,100314.83
2018-07-08T07:20:28.892Z,100321.73
2018-07-08T07:22:54.884Z,100319.68
2018-07-08T07:25:20.849Z,100316.64
2018-07-08T07:27:46.869Z,100317.46
2018-07-08T07:30:12.858Z,100322.59
2018-07-08T07:32:38.862Z,100322.49
2018-07-08T07:35:04.823Z,100313.21
2018-07-08T07:37:30.825Z,100312.96
2018-07-08T07:39:56.845Z,100319.16
2018-07-08T07:42:22.819Z,100315.19
2018-07-08T07:44:48.788Z,100316.64
2018-07-08T07:47:14.794Z,100318.83
2018-07-08T07:49:40.751Z,100320.89
2018-07-08T07:52:06.710Z,100321.95
2018-07-08T07:54:32.666Z,100320.28
2018-07-08T07:56:58.629Z,100326.14
2018-07-08T07:59:24.643Z,100321.63
2018-07-08T08:01:50.644Z,100334.56
2018-07-08T08:04:16.590Z,100324.93
2018-07-08T08:06:42.569Z,100328.17
2018-07-08T08:09:08.543Z,100329.25
2018-07-08T08:11:35.534Z,100322.51
2018-07-08T08:14:01.521Z,100318.27
2018-07-08T08:16:27.504Z,100321.92
2018-07-08T08:18:53.468Z,100318.81
2018-07-08T08:21:19.448Z,100312.91
2018-07-08T08:23:45.395Z,100309.02
2018-07-08T08:26:11.361Z,100311.93
2018-07-08T08:28:37.318Z,100302.44
2018-07-08T08:31:03.303Z,100308.30
2018-07-08T08:33:29.248Z,100304.45
2018-07-08T08:35:55.206Z,100307.46
2018-07-08T08:38:21.173Z,100313.03
2018-07-08T08:40:47.129Z,100308.20
2018-07-08T08:43:13.080Z,100308.83
2018-07-08T08:45:39.048Z,100306.32
2018-07-08T08:48:05.018Z,100310.60
2018-07-08T08:50:32.008Z,100314.41
2018-07-08T08:52:57.995Z,100315.05
2018-07-08T08:55:23.974Z,100313.16
2018-07-08T08:57:49.975Z,100319.30
2018-07-08T09:00:15.961Z,100263.74
2018-07-08T09:02:41.954Z,100308.78
2018-07-08T09:05:07.922Z,100305.77
2018-07-08T09:07:33.881Z,100310.41
2018-07-08T09:09:59.921Z,100302.20
2018-07-08T09:12:25.973Z,100305.52
2018-07-08T09:14:51.986Z,100305.22
2018-07-08T09:17:17.960Z,100301.99
2018-07-08T09:19:44.035Z,100296.84
2018-07-08T09:22:10.017Z,100300.06
2018-07-08T09:24:35.993Z,100306.72
2018-07-08T09:27:01.961Z,100297.95
2018-07-08T09:29:27.948Z,100302.78
2018-07-08T09:31:53.932Z,100303.86
2018-07-08T09:34:19.878Z,100309.29
2018-07-08T09:36:45.845Z,100306.20
2018-07-08T09:39:11.891Z,100299.34
2018-07-08T09:41:37.784Z,100310.86
2018-07-08T09:44:03.729Z,100307.59
2018-07-08T09:46:29.762Z,100306.45
2018-07-08T09:48:55.749Z,100299.08
2018-07-08T09:51:21.875Z,100302.84
2018-07-08T09:53:47.849Z,100302.47
2018-07-08T09:56:13.817Z,100302.71
2018-07-08T09:58:39.814Z,100297.95
2018-07-08T10:01:05.768Z,100298.53
2018-07-08T10:03:31.729Z,100296.22
2018-07-08T10:05:57.706Z,100293.71
2018-07-08T10:08:23.685Z,100294.15
2018-07-08T10:10:49.731Z,100290.11
2018-07-08T10:13:15.691Z,100294.19
2018-07-08T10:15:42.692Z,100289.05
2018-07-08T10:18:08.656Z,100282.38
2018-07-08T10:20:34.616Z,100287.30
2018-07-08T10:23:00.569Z,100298.08
2018-07-08T10:25:26.543Z,100293.41
2018-07-08T10:27:52.641Z,100292.13
2018-07-08T10:30:18.655Z,100286.06
2018-07-08T10:32:44.646Z,100294.97
2018-07-08T10:35:10.812Z,100286.23
2018-07-08T10:37:36.841Z,100291.41
2018-07-08T10:40:02.839Z,100292.03
2018-07-08T10:42:28.983Z,100293.01
2018-07-08T10:44:54.964Z,100281.66
2018-07-08T10:47:20.968Z,100282.19
2018-07-08T10:49:47.045Z,100276.77
2018-07-08T10:52:12.989Z,100274.05
2018-07-08T10:54:38.930Z,100278.64
2018-07-08T10:57:04.900Z,100275.10
2018-07-08T10:59:30.886Z,100277.35
2018-07-08T11:01:56.828Z,100279.36
2018-07-08T11:04:22.793Z,100279.36
2018-07-08T11:06:48.773Z,100279.42
2018-07-08T11:09:14.752Z,100283.11
2018-07-08T11:11:40.712Z,100283.38
2018-07-08T11:14:06.708Z,100281.79
2018-07-08T11:16:32.673Z,100286.32
2018-07-08T11:18:58.653Z,100284.63
2018-07-08T11:21:24.613Z,100288.84
2018-07-08T11:26:16.464Z,100277.37
2018-07-08T11:28:42.404Z,100274.92
2018-07-08T11:31:08.345Z,100275.34
2018-07-08T11:33:34.320Z,100276.71
2018-07-08T11:36:00.310Z,100270.55
2018-07-08T11:38:26.303Z,100273.72
2018-07-08T11:40:52.236Z,100273.26
2018-07-08T11:43:18.223Z,100271.84
2018-07-08T11:45:44.161Z,100263.89
2018-07-08T11:48:10.128Z,100268.63
2018-07-08T11:50:36.136Z,100272.08
2018-07-08T11:53:02.261Z,100269.31
2018-07-08T11:55:28.301Z,100266.48
2018-07-08T11:57:54.258Z,100265.73
2018-07-08T12:00:20.259Z,100269.27
2018-07-08T12:02:46.358Z,100262.83
2018-07-08T12:05:12.316Z,100268.66
2018-07-08T12:07:38.257Z,100264.52
2018-07-08T12:10:04.226Z,100270.27
2018-07-08T12:12:30.190Z,100269.29
2018-07-08T12:14:56.200Z,100270.80
2018-07-08T12:17:22.165Z,100268.27
2018-07-08T12:19:48.189Z,100272.66
2018-07-08T12:22:14.150Z,100266.61
2018-07-08T12:24:40.123Z,100260.05
2018-07-08T12:27:06.254Z,100270.53
2018-07-08T12:29:32.246Z,100266.36
2018-07-08T12:31:58.204Z,100262.80
2018-07-08T12:34:24.186Z,100262.61
2018-07-08T12:36:50.304Z,100265.31
2018-07-08T12:39:16.238Z,100267.77
2018-07-08T12:41:42.220Z,100262.75
2018-07-08T12:44:08.212Z,100265.20
2018-07-08T12:46:34.213Z,100261.97
2018-07-08T12:49:00.182Z,100269.44
2018-07-08T12:51:26.191Z,100267.71
2018-07-08T12:53:52.159Z,100269.42
2018-07-08T12:56:18.181Z,100269.88
2018-07-08T12:58:44.191Z,100283.09
2018-07-08T13:01:12.074Z,100276.19
2018-07-08T13:03:38.047Z,100278.72
2018-07-08T13:06:04.103Z,100278.01
2018-07-08T13:08:30.139Z,100274.47
2018-07-08T13:10:56.154Z,100273.70
2018-07-08T13:13:22.145Z,100268.02
2018-07-08T13:15:48.099Z,100269.24
2018-07-08T13:18:14.083Z,100268.02
2018-07-08T13:20:40.059Z,100266.86
2018-07-08T13:23:06.020Z,100258.42
2018-07-08T13:25:31.984Z,100260.16
2018-07-08T13:27:57.974Z,100259.38
2018-07-08T13:30:23.942Z,100259.20
2018-07-08T13:32:49.919Z,100257.47
2018-07-08T13:35:15.910Z,100264.41
2018-07-08T13:37:41.884Z,100253.70
2018-07-08T13:40:07.864Z,100251.70
2018-07-08T13:42:33.839Z,100258.13
2018-07-08T13:44:59.807Z,100249.27
2018-07-08T13:47:25.920Z,100253.47
2018-07-08T13:49:51.880Z,100247.37
2018-07-08T13:52:17.872Z,100252.25
2018-07-08T13:54:43.896Z,100248.19
2018-07-08T13:57:09.862Z,100252.69
2018-07-08T13:59:35.859Z,100248.96
2018-07-08T14:02:01.844Z,100245.09
2018-07-08T14:04:27.921Z,100237.87
2018-07-08T14:06:53.945Z,100236.17
2018-07-08T14:09:19.939Z,100242.83
2018-07-08T14:11:45.926Z,100242.14
2018-07-08T14:14:12.020Z,100242.72
2018-07-08T14:16:38.018Z,100243.81
2018-07-08T14:19:04.187Z,100240.08
2018-07-08T14:21:30.166Z,100239.84
2018-07-08T14:23:56.159Z,100243.44
2018-07-08T14:26:22.130Z,100239.94
2018-07-08T14:28:48.126Z,100240.66
2018-07-08T14:31:14.091Z,100233.50
2018-07-08T14:33:40.085Z,100235.16
2018-07-08T14:36:06.102Z,100237.50
2018-07-08T14:38:32.144Z,100235.30
2018-07-08T14:40:58.196Z,100232.34
2018-07-08T14:43:24.249Z,100235.70
2018-07-08T14:45:50.287Z,100229.73
2018-07-08T14:48:16.290Z,100225.77
2018-07-08T14:50:42.260Z,100218.20
2018-07-08T14:53:08.208Z,100217.59
2018-07-08T14:55:34.192Z,100214.98
2018-07-08T14:58:00.166Z,100207.72
2018-07-08T15:00:26.129Z,100207.75
2018-07-08T15:02:52.104Z,100206.56
2018-07-08T15:05:18.066Z,100205.52
2018-07-08T15:07:44.052Z,100209.38
2018-07-08T15:10:10.018Z,100206.70
2018-07-08T15:12:35.991Z,100205.91
2018-07-08T15:15:01.957Z,100203.20
2018-07-08T15:17:27.925Z,100203.71
2018-07-08T15:19:53.905Z,100211.34
2018-07-08T15:22:19.874Z,100199.20
2018-07-08T15:24:45.841Z,100196.25
2018-07-08T15:27:11.784Z,100203.84
2018-07-08T15:29:37.763Z,100199.81
2018-07-08T15:32:03.729Z,100199.98
2018-07-08T15:34:29.692Z,100198.45
2018-07-08T15:36:55.679Z,100202.87
2018-07-08T15:39:21.642Z,100196.89
2018-07-08T15:41:47.618Z,100191.70
2018-07-08T15:44:13.634Z,100190.19
2018-07-08T15:46:39.724Z,100194.31
2018-07-08T15:49:05.710Z,100193.53
2018-07-08T15:51:32.673Z,100194.31
2018-07-08T15:53:58.662Z,100197.67
2018-07-08T15:56:24.696Z,100168.86
2018-07-08T15:58:50.710Z,100194.05
2018-07-08T16:01:16.735Z,100193.94
2018-07-08T16:03:42.719Z,100192.96
2018-07-08T16:06:08.748Z,100194.25
2018-07-08T16:08:34.748Z,100192.63
2018-07-08T16:11:00.747Z,100201.92
2018-07-08T16:13:26.739Z,100198.36
2018-07-08T16:15:52.817Z,100193.47
2018-07-08T16:18:18.830Z,100196.02
2018-07-08T16:20:44.800Z,100192.89
2018-07-08T16:23:10.766Z,100200.12
2018-07-08T16:25:36.785Z,100204.77
2018-07-08T16:28:02.779Z,100200.63
2018-07-08T16:30:28.750Z,100201.55
2018-07-08T16:32:54.788Z,100200.73
2018-07-08T16:35:20.799Z,100195.74
2018-07-08T16:37:46.901Z,100194.17
2018-07-08T16:40:12.852Z,100190.81
2018-07-08T16:42:38.842Z,100192.17
2018-07-08T16:45:04.802Z,100189.61
2018-07-08T16:47:30.827Z,100185.95
2018-07-08T16:49:56.832Z,100178.99
2018-07-08T16:52:22.840Z,100183.61
2018-07-08T16:54:48.790Z,100182.96
2018-07-08T16:57:14.732Z,100179.61
2018-07-08T16:59:40.699Z,100178.34
2018-07-08T17:02:06.652Z,100182.31
2018-07-08T17:04:32.617Z,100175.13
2018-07-08T17:06:58.595Z,100177.03
2018-07-08T17:09:24.623Z,100173.84
2018-07-08T17:11:50.607Z,100165.47
2018-07-08T17:14:16.593Z,100164.11
2018-07-08T17:16:42.776Z,100167.50
2018-07-08T17:19:08.757Z,100157.33
2018-07-08T17:21:34.776Z,100160.17
2018-07-08T17:24:00.814Z,100164.04
2018-07-08T17:26:29.445Z,100161.73
2018-07-08T17:28:55.449Z,100164.75
2018-07-08T17:31:21.439Z,100162.34
2018-07-08T17:33:47.471Z,100159.02
2018-07-08T17:36:13.416Z,100160.55
2018-07-08T17:38:39.386Z,100148.72
2018-07-08T17:41:05.342Z,100155.80
2018-07-08T17:43:31.317Z,100156.97
2018-07-08T17:45:57.264Z,100155.73
2018-07-08T17:50:49.123Z,100163.55
2018-07-08T17:53:15.096Z,100160.44
2018-07-08T17:55:41.122Z,100156.47
2018-07-08T17:58:07.185Z,100161.03
2018-07-08T18:00:33.170Z,100156.19
2018-07-08T18:02:59.154Z,100159.41
2018-07-08T18:05:25.138Z,100161.81
2018-07-08T18:07:51.164Z,100153.95
2018-07-08T18:10:17.204Z,100156.53
2018-07-08T18:12:43.169Z,100156.20
2018-07-08T18:15:09.195Z,100154.78
2018-07-08T18:17:35.199Z,100154.75
2018-07-08T18:20:01.226Z,100156.95
2018-07-08T18:22:27.199Z,100157.27
2018-07-08T18:24:53.354Z,100153.59
2018-07-08T18:27:19.325Z,100152.78
2018-07-08T18:29:45.303Z,100154.51
2018-07-08T18:32:11.297Z,100162.64
2018-07-08T18:34:37.322Z,100154.51
2018-07-08T18:37:03.346Z,100152.78
2018-07-08T18:39:29.343Z,100156.59
2018-07-08T18:41:55.401Z,100157.34
2018-07-08T18:44:21.474Z,100152.61
2018-07-08T18:46:47.495Z,100157.98
2018-07-08T18:49:13.506Z,100151.94
2018-07-08T18:51:39.486Z,100154.46
2018-07-08T18:54:07.552Z,100154.09
2018-07-08T18:56:33.554Z,100148.30
2018-07-08T18:59:01.576Z,100152.08
2018-07-08T19:01:28.675Z,100152.69
2018-07-08T19:03:54.657Z,100161.27
2018-07-08T19:06:20.805Z,100169.83
2018-07-08T19:08:46.829Z,100171.92
2018-07-08T19:11:12.843Z,100171.10
2018-07-08T19:13:38.856Z,100175.14
2018-07-08T19:16:04.999Z,100169.27
2018-07-08T19:18:31.083Z,100172.75
2018-07-08T19:20:57.105Z,100172.29
2018-07-08T19:23:23.204Z,100174.37
2018-07-08T19:25:49.286Z,100177.93
2018-07-08T19:28:16.448Z,100179.66
2018-07-08T19:30:42.422Z,100174.25
2018-07-08T19:33:08.425Z,100177.50
2018-07-08T19:35:35.495Z,100174.48
2018-07-08T19:38:01.766Z,100171.53
2018-07-08T19:40:27.847Z,100177.97
2018-07-08T19:42:53.847Z,100182.08
2018-07-08T19:45:19.910Z,100175.77
2018-07-08T19:47:45.903Z,100181.70
2018-07-08T19:50:11.928Z,100178.52
2018-07-08T19:52:37.907Z,100183.37
2018-07-08T19:55:03.877Z,100181.67
2018-07-08T19:57:30.073Z,100182.52
2018-07-08T19:59:56.128Z,100182.63
2018-07-08T20:02:22.130Z,100182.13
2018-07-08T20:04:48.306Z,100184.00
2018-07-08T20:07:14.356Z,100188.00
2018-07-08T20:09:40.334Z,100190.17
2018-07-08T20:12:06.337Z,100190.59
2018-07-08T20:14:32.352Z,100192.31
2018-07-08T20:16:58.291Z,100195.20
2018-07-08T20:19:24.239Z,100192.63
2018-07-08T20:21:51.343Z,100197.72
2018-07-08T20:24:17.429Z,100195.50
2018-07-08T20:26:43.368Z,100201.45
2018-07-08T20:29:09.375Z,100203.16
2018-07-08T20:31:35.397Z,100196.11
2018-07-08T20:34:01.437Z,100199.41
2018-07-08T20:36:27.451Z,100197.89
2018-07-08T20:38:53.419Z,100198.47
2018-07-08T20:41:19.394Z,100196.90
2018-07-08T20:43:45.358Z,100189.23
2018-07-08T20:46:11.358Z,100192.59
2018-07-08T20:48:37.779Z,100198.41
2018-07-08T20:51:03.801Z,100200.92
2018-07-08T20:53:29.865Z,100195.28
2018-07-08T20:55:55.841Z,100198.80
2018-07-08T20:58:21.800Z,100192.53
2018-07-08T21:00:47.784Z,100193.20
2018-07-08T21:03:13.808Z,100187.39
2018-07-08T21:05:39.759Z,100188.01
2018-07-08T21:08:05.700Z,100193.55
2018-07-08T21:10:31.747Z,100194.83
2018-07-08T21:12:57.689Z,100188.90
2018-07-08T21:15:23.666Z,100190.06
2018-07-08T21:17:49.630Z,100189.67
2018-07-08T21:20:15.633Z,100193.28
2018-07-08T21:22:41.616Z,100185.90
2018-07-08T21:25:07.656Z,100184.36
2018-07-08T21:27:33.642Z,100181.26
2018-07-08T21:29:59.632Z,100184.42
2018-07-08T21:32:25.596Z,100187.24
2018-07-08T21:34:51.644Z,100190.02
2018-07-08T21:37:17.607Z,100186.97
2018-07-08T21:39:43.604Z,100190.14
2018-07-08T21:42:09.553Z,100186.55
2018-07-08T21:44:35.516Z,100190.13
2018-07-08T21:47:01.516Z,100185.48
2018-07-08T21:49:27.511Z,100188.97
2018-07-08T21:51:53.445Z,100192.97
2018-07-08T21:54:19.400Z,100185.55
2018-07-08T21:56:45.366Z,100180.46
2018-07-08T21:59:11.376Z,100178.95
2018-07-08T22:01:37.334Z,100181.73
2018-07-08T22:04:03.279Z,100186.06
2018-07-08T22:06:29.236Z,100186.49
2018-07-08T22:08:55.176Z,100186.92
2018-07-08T22:11:21.168Z,100190.45
2018-07-08T22:13:47.130Z,100192.97
2018-07-08T22:16:13.088Z,100190.99
2018-07-08T22:18:39.058Z,100187.61
2018-07-08T22:21:05.181Z,100190.08
2018-07-08T22:23:31.138Z,100185.05
2018-07-08T22:25:57.120Z,100189.92
2018-07-08T22:28:23.083Z,100190.38
2018-07-08T22:30:49.091Z,100190.35
2018-07-08T22:33:15.046Z,100189.00
2018-07-08T22:35:40.992Z,100193.61
2018-07-08T22:38:06.936Z,100188.66
2018-07-08T22:40:32.904Z,100187.11
2018-07-08T22:42:58.899Z,100186.04
2018-07-08T22:45:24.859Z,100188.90
2018-07-08T22:47:50.821Z,100192.73
2018-07-08T22:50:16.795Z,100184.61
2018-07-08T22:52:42.780Z,100183.85
2018-07-08T22:55:08.761Z,100189.84
2018-07-08T22:57:34.743Z,100188.72
2018-07-08T23:00:00.705Z,100187.29
2018-07-08T23:02:26.713Z,100186.05
2018-07-08T23:04:52.644Z,100190.27
2018-07-08T23:07:18.620Z,100182.20
2018-07-08T23:09:44.571Z,100185.63
2018-07-08T23:12:10.564Z,100184.72
2018-07-08T23:14:36.493Z,100184.41
2018-07-08T23:17:02.430Z,100184.57
2018-07-08T23:19:28.384Z,100183.98
2018-07-08T23:21:54.348Z,100180.03
2018-07-08T23:24:20.299Z,100184.88
2018-07-08T23:26:46.273Z,100185.58
2018-07-08T23:29:12.241Z,100188.27
2018-07-08T23:31:38.281Z,100187.45
2018-07-08T23:34:04.236Z,100189.02
2018-07-08T23:36:30.201Z,100190.71
2018-07-08T23:38:56.163Z,100184.56
2018-07-08T23:41:22.145Z,100185.95
2018-07-08T23:43:48.092Z,100186.80
2018-07-08T23:46:14.073Z,100185.84
2018-07-08T23:48:40.018Z,100190.69
2018-07-08T23:51:05.993Z,100188.00
2018-07-08T23:53:31.971Z,100189.91
2018-07-08T23:55:57.946Z,100191.96
2018-07-08T23:58:23.922Z,100185.55
